sensor_id;sensor_type;location;lat;lon;timestamp;P1;durP1;ratioP1;P2;durP2;ratioP2
10100;SDS011;5090;51.258;4.436;2022-08-27T00:01:07;5.40;;;2.30;;
10100;SDS011;5090;51.258;4.436;2022-08-27T00:03:35;6.27;;;2.70;;
10100;SDS011;5090;51.258;4.436;2022-08-27T00:06:04;4.40;;;2.20;;
10100;SDS011;5090;51.258;4.436;2022-08-27T00:08:33;7.00;;;2.27;;
10100;SDS011;5090;51.258;4.436;2022-08-27T00:11:01;5.67;;;2.07;;
10100;SDS011;5090;51.258;4.436;2022-08-27T00:13:29;6.87;;;2.30;;
10100;SDS011;5090;51.258;4.436;2022-08-27T00:15:57;7.30;;;2.37;;
10100;SDS011;5090;51.258;4.436;2022-08-27T00:18:25;5.20;;;2.47;;
10100;SDS011;5090;51.258;4.436;2022-08-27T00:20:54;4.07;;;2.20;;
10100;SDS011;5090;51.258;4.436;2022-08-27T00:23:22;9.67;;;2.37;;
10100;SDS011;5090;51.258;4.436;2022-08-27T00:25:50;5.53;;;2.40;;
10100;SDS011;5090;51.258;4.436;2022-08-27T00:28:19;3.37;;;2.77;;
10100;SDS011;5090;51.258;4.436;2022-08-27T00:30:47;8.73;;;2.80;;
10100;SDS011;5090;51.258;4.436;2022-08-27T00:33:16;5.83;;;2.83;;
10100;SDS011;5090;51.258;4.436;2022-08-27T00:35:44;4.13;;;2.40;;
10100;SDS011;5090;51.258;4.436;2022-08-27T00:38:12;9.77;;;2.80;;
10100;SDS011;5090;51.258;4.436;2022-08-27T00:40:41;5.03;;;2.60;;
10100;SDS011;5090;51.258;4.436;2022-08-27T00:43:09;5.80;;;2.50;;
10100;SDS011;5090;51.258;4.436;2022-08-27T00:45:38;5.47;;;2.20;;
10100;SDS011;5090;51.258;4.436;2022-08-27T00:48:05;7.40;;;3.03;;
10100;SDS011;5090;51.258;4.436;2022-08-27T00:50:35;7.83;;;3.30;;
10100;SDS011;5090;51.258;4.436;2022-08-27T00:53:03;4.90;;;2.70;;
10100;SDS011;5090;51.258;4.436;2022-08-27T00:55:32;8.00;;;2.60;;
10100;SDS011;5090;51.258;4.436;2022-08-27T00:58:15;7.00;;;2.83;;
10100;SDS011;5090;51.258;4.436;2022-08-27T01:00:43;7.77;;;2.80;;
10100;SDS011;5090;51.258;4.436;2022-08-27T01:03:10;6.23;;;3.00;;
10100;SDS011;5090;51.258;4.436;2022-08-27T01:05:38;5.63;;;3.13;;
10100;SDS011;5090;51.258;4.436;2022-08-27T01:08:09;7.00;;;3.13;;
10100;SDS011;5090;51.258;4.436;2022-08-27T01:10:36;5.83;;;2.80;;
10100;SDS011;5090;51.258;4.436;2022-08-27T01:13:05;8.60;;;3.40;;
10100;SDS011;5090;51.258;4.436;2022-08-27T01:15:32;5.13;;;3.27;;
10100;SDS011;5090;51.258;4.436;2022-08-27T01:18:02;8.50;;;2.63;;
10100;SDS011;5090;51.258;4.436;2022-08-27T01:20:30;5.87;;;3.50;;
10100;SDS011;5090;51.258;4.436;2022-08-27T01:23:01;6.27;;;2.93;;
10100;SDS011;5090;51.258;4.436;2022-08-27T01:25:26;7.77;;;3.20;;
10100;SDS011;5090;51.258;4.436;2022-08-27T01:27:56;8.47;;;3.27;;
10100;SDS011;5090;51.258;4.436;2022-08-27T01:30:24;5.93;;;3.10;;
10100;SDS011;5090;51.258;4.436;2022-08-27T01:32:52;5.83;;;3.13;;
10100;SDS011;5090;51.258;4.436;2022-08-27T01:35:21;8.50;;;3.33;;
10100;SDS011;5090;51.258;4.436;2022-08-27T01:37:49;5.70;;;3.33;;
10100;SDS011;5090;51.258;4.436;2022-08-27T01:40:17;3.90;;;2.90;;
10100;SDS011;5090;51.258;4.436;2022-08-27T01:42:46;6.83;;;2.90;;
10100;SDS011;5090;51.258;4.436;2022-08-27T01:45:15;6.67;;;3.40;;
10100;SDS011;5090;51.258;4.436;2022-08-27T01:47:41;7.07;;;3.17;;
10100;SDS011;5090;51.258;4.436;2022-08-27T01:50:12;6.13;;;3.37;;
10100;SDS011;5090;51.258;4.436;2022-08-27T01:52:39;8.70;;;3.30;;
10100;SDS011;5090;51.258;4.436;2022-08-27T01:55:09;6.27;;;3.00;;
10100;SDS011;5090;51.258;4.436;2022-08-27T01:57:37;5.77;;;3.13;;
10100;SDS011;5090;51.258;4.436;2022-08-27T02:00:07;7.07;;;3.40;;
10100;SDS011;5090;51.258;4.436;2022-08-27T02:02:33;5.17;;;3.13;;
10100;SDS011;5090;51.258;4.436;2022-08-27T02:05:02;8.87;;;3.50;;
10100;SDS011;5090;51.258;4.436;2022-08-27T02:07:30;7.83;;;3.67;;
10100;SDS011;5090;51.258;4.436;2022-08-27T02:09:58;7.10;;;3.57;;
10100;SDS011;5090;51.258;4.436;2022-08-27T02:12:26;9.83;;;3.30;;
10100;SDS011;5090;51.258;4.436;2022-08-27T02:14:54;10.03;;;3.53;;
10100;SDS011;5090;51.258;4.436;2022-08-27T02:17:24;11.93;;;4.40;;
10100;SDS011;5090;51.258;4.436;2022-08-27T02:19:52;4.67;;;3.60;;
10100;SDS011;5090;51.258;4.436;2022-08-27T02:22:20;6.03;;;3.50;;
10100;SDS011;5090;51.258;4.436;2022-08-27T02:24:48;10.27;;;3.60;;
10100;SDS011;5090;51.258;4.436;2022-08-27T02:27:16;5.50;;;3.17;;
10100;SDS011;5090;51.258;4.436;2022-08-27T02:29:45;7.43;;;3.50;;
10100;SDS011;5090;51.258;4.436;2022-08-27T02:32:13;8.00;;;3.60;;
10100;SDS011;5090;51.258;4.436;2022-08-27T02:34:41;13.00;;;4.00;;
10100;SDS011;5090;51.258;4.436;2022-08-27T02:37:09;7.97;;;3.77;;
10100;SDS011;5090;51.258;4.436;2022-08-27T02:39:37;6.53;;;3.47;;
10100;SDS011;5090;51.258;4.436;2022-08-27T02:42:06;13.40;;;3.50;;
10100;SDS011;5090;51.258;4.436;2022-08-27T02:44:34;7.23;;;3.50;;
10100;SDS011;5090;51.258;4.436;2022-08-27T02:47:02;9.83;;;3.97;;
10100;SDS011;5090;51.258;4.436;2022-08-27T02:49:31;6.37;;;3.10;;
10100;SDS011;5090;51.258;4.436;2022-08-27T02:51:59;10.80;;;3.33;;
10100;SDS011;5090;51.258;4.436;2022-08-27T02:54:27;6.33;;;3.13;;
10100;SDS011;5090;51.258;4.436;2022-08-27T02:56:55;8.30;;;3.57;;
10100;SDS011;5090;51.258;4.436;2022-08-27T02:59:23;5.77;;;3.53;;
10100;SDS011;5090;51.258;4.436;2022-08-27T03:01:52;6.47;;;3.57;;
10100;SDS011;5090;51.258;4.436;2022-08-27T03:04:20;6.63;;;3.30;;
10100;SDS011;5090;51.258;4.436;2022-08-27T03:06:48;11.00;;;3.87;;
10100;SDS011;5090;51.258;4.436;2022-08-27T03:09:16;5.57;;;3.33;;
10100;SDS011;5090;51.258;4.436;2022-08-27T03:11:44;5.90;;;3.50;;
10100;SDS011;5090;51.258;4.436;2022-08-27T03:14:13;5.37;;;3.10;;
10100;SDS011;5090;51.258;4.436;2022-08-27T03:16:41;7.93;;;3.67;;
10100;SDS011;5090;51.258;4.436;2022-08-27T03:19:09;7.07;;;3.90;;
10100;SDS011;5090;51.258;4.436;2022-08-27T03:21:37;8.60;;;3.33;;
10100;SDS011;5090;51.258;4.436;2022-08-27T03:24:06;7.13;;;3.30;;
10100;SDS011;5090;51.258;4.436;2022-08-27T03:26:35;5.20;;;3.40;;
10100;SDS011;5090;51.258;4.436;2022-08-27T03:29:03;5.33;;;3.10;;
10100;SDS011;5090;51.258;4.436;2022-08-27T03:31:31;5.80;;;3.30;;
10100;SDS011;5090;51.258;4.436;2022-08-27T03:34:01;12.13;;;3.27;;
10100;SDS011;5090;51.258;4.436;2022-08-27T03:36:28;8.87;;;3.40;;
10100;SDS011;5090;51.258;4.436;2022-08-27T03:38:56;8.13;;;3.13;;
10100;SDS011;5090;51.258;4.436;2022-08-27T03:41:24;11.03;;;3.27;;
10100;SDS011;5090;51.258;4.436;2022-08-27T03:43:52;6.33;;;3.50;;
10100;SDS011;5090;51.258;4.436;2022-08-27T03:46:21;6.50;;;3.43;;
10100;SDS011;5090;51.258;4.436;2022-08-27T03:48:49;9.10;;;3.50;;
10100;SDS011;5090;51.258;4.436;2022-08-27T03:51:17;4.90;;;3.60;;
10100;SDS011;5090;51.258;4.436;2022-08-27T03:53:45;5.80;;;3.00;;
10100;SDS011;5090;51.258;4.436;2022-08-27T03:56:14;4.77;;;3.07;;
10100;SDS011;5090;51.258;4.436;2022-08-27T03:58:42;7.03;;;3.37;;
10100;SDS011;5090;51.258;4.436;2022-08-27T04:01:10;8.23;;;3.40;;
10100;SDS011;5090;51.258;4.436;2022-08-27T04:03:38;8.87;;;3.20;;
10100;SDS011;5090;51.258;4.436;2022-08-27T04:06:06;5.53;;;2.53;;
10100;SDS011;5090;51.258;4.436;2022-08-27T04:08:35;8.47;;;3.47;;
10100;SDS011;5090;51.258;4.436;2022-08-27T04:11:04;5.90;;;3.00;;
10100;SDS011;5090;51.258;4.436;2022-08-27T04:13:31;6.33;;;2.93;;
10100;SDS011;5090;51.258;4.436;2022-08-27T04:16:00;12.50;;;4.23;;
10100;SDS011;5090;51.258;4.436;2022-08-27T04:18:28;10.07;;;2.70;;
10100;SDS011;5090;51.258;4.436;2022-08-27T04:20:56;7.33;;;3.10;;
10100;SDS011;5090;51.258;4.436;2022-08-27T04:23:24;6.13;;;2.83;;
10100;SDS011;5090;51.258;4.436;2022-08-27T04:25:53;7.87;;;2.93;;
10100;SDS011;5090;51.258;4.436;2022-08-27T04:28:21;3.93;;;3.17;;
10100;SDS011;5090;51.258;4.436;2022-08-27T04:30:49;5.83;;;3.27;;
10100;SDS011;5090;51.258;4.436;2022-08-27T04:33:18;5.50;;;2.67;;
10100;SDS011;5090;51.258;4.436;2022-08-27T04:35:46;6.23;;;2.83;;
10100;SDS011;5090;51.258;4.436;2022-08-27T04:38:14;7.23;;;3.00;;
10100;SDS011;5090;51.258;4.436;2022-08-27T04:40:42;6.43;;;2.80;;
10100;SDS011;5090;51.258;4.436;2022-08-27T04:43:16;6.40;;;2.83;;
10100;SDS011;5090;51.258;4.436;2022-08-27T04:45:45;9.30;;;3.70;;
10100;SDS011;5090;51.258;4.436;2022-08-27T04:48:13;8.17;;;3.17;;
10100;SDS011;5090;51.258;4.436;2022-08-27T04:50:41;5.97;;;2.90;;
10100;SDS011;5090;51.258;4.436;2022-08-27T04:53:10;14.10;;;3.63;;
10100;SDS011;5090;51.258;4.436;2022-08-27T04:55:45;6.07;;;3.20;;
10100;SDS011;5090;51.258;4.436;2022-08-27T04:58:13;6.17;;;3.03;;
10100;SDS011;5090;51.258;4.436;2022-08-27T05:00:43;11.53;;;3.17;;
10100;SDS011;5090;51.258;4.436;2022-08-27T05:03:10;4.93;;;2.83;;
10100;SDS011;5090;51.258;4.436;2022-08-27T05:05:39;8.57;;;3.10;;
10100;SDS011;5090;51.258;4.436;2022-08-27T05:08:07;6.13;;;3.10;;
10100;SDS011;5090;51.258;4.436;2022-08-27T05:10:38;9.97;;;2.93;;
10100;SDS011;5090;51.258;4.436;2022-08-27T05:13:05;4.97;;;2.50;;
10100;SDS011;5090;51.258;4.436;2022-08-27T05:15:34;5.10;;;2.53;;
10100;SDS011;5090;51.258;4.436;2022-08-27T05:18:02;10.00;;;2.70;;
10100;SDS011;5090;51.258;4.436;2022-08-27T05:20:30;9.43;;;3.27;;
10100;SDS011;5090;51.258;4.436;2022-08-27T05:22:58;5.63;;;2.43;;
10100;SDS011;5090;51.258;4.436;2022-08-27T05:25:26;6.27;;;2.47;;
10100;SDS011;5090;51.258;4.436;2022-08-27T05:27:54;7.73;;;3.00;;
10100;SDS011;5090;51.258;4.436;2022-08-27T05:30:23;3.10;;;2.10;;
10100;SDS011;5090;51.258;4.436;2022-08-27T05:32:51;7.50;;;2.97;;
10100;SDS011;5090;51.258;4.436;2022-08-27T05:35:19;4.60;;;2.53;;
10100;SDS011;5090;51.258;4.436;2022-08-27T05:37:47;5.37;;;2.60;;
10100;SDS011;5090;51.258;4.436;2022-08-27T05:40:16;5.97;;;2.63;;
10100;SDS011;5090;51.258;4.436;2022-08-27T05:42:44;4.23;;;2.33;;
10100;SDS011;5090;51.258;4.436;2022-08-27T05:45:12;5.60;;;2.67;;
10100;SDS011;5090;51.258;4.436;2022-08-27T05:47:41;4.97;;;2.30;;
10100;SDS011;5090;51.258;4.436;2022-08-27T05:50:09;8.03;;;2.23;;
10100;SDS011;5090;51.258;4.436;2022-08-27T05:52:37;5.67;;;2.50;;
10100;SDS011;5090;51.258;4.436;2022-08-27T05:55:05;4.90;;;3.10;;
10100;SDS011;5090;51.258;4.436;2022-08-27T05:57:34;4.13;;;2.43;;
10100;SDS011;5090;51.258;4.436;2022-08-27T06:00:03;6.07;;;2.13;;
10100;SDS011;5090;51.258;4.436;2022-08-27T06:02:36;3.40;;;1.80;;
10100;SDS011;5090;51.258;4.436;2022-08-27T06:05:04;4.63;;;2.00;;
10100;SDS011;5090;51.258;4.436;2022-08-27T06:07:33;5.77;;;2.00;;
10100;SDS011;5090;51.258;4.436;2022-08-27T06:10:02;3.37;;;2.00;;
10100;SDS011;5090;51.258;4.436;2022-08-27T06:12:29;7.10;;;2.40;;
10100;SDS011;5090;51.258;4.436;2022-08-27T06:14:58;5.37;;;1.77;;
10100;SDS011;5090;51.258;4.436;2022-08-27T06:17:26;6.37;;;1.97;;
10100;SDS011;5090;51.258;4.436;2022-08-27T06:19:54;8.45;;;1.85;;
10100;SDS011;5090;51.258;4.436;2022-08-27T06:22:22;6.47;;;1.55;;
10100;SDS011;5090;51.258;4.436;2022-08-27T06:24:51;3.37;;;1.40;;
10100;SDS011;5090;51.258;4.436;2022-08-27T06:27:19;6.12;;;1.90;;
10100;SDS011;5090;51.258;4.436;2022-08-27T06:29:47;9.43;;;1.98;;
10100;SDS011;5090;51.258;4.436;2022-08-27T06:32:16;6.25;;;2.03;;
10100;SDS011;5090;51.258;4.436;2022-08-27T06:34:44;3.95;;;1.62;;
10100;SDS011;5090;51.258;4.436;2022-08-27T06:37:12;2.67;;;1.60;;
10100;SDS011;5090;51.258;4.436;2022-08-27T06:39:41;4.53;;;1.50;;
10100;SDS011;5090;51.258;4.436;2022-08-27T06:42:09;8.00;;;1.55;;
10100;SDS011;5090;51.258;4.436;2022-08-27T06:44:37;5.00;;;1.48;;
10100;SDS011;5090;51.258;4.436;2022-08-27T06:47:05;3.05;;;1.20;;
10100;SDS011;5090;51.258;4.436;2022-08-27T06:49:33;5.47;;;1.55;;
10100;SDS011;5090;51.258;4.436;2022-08-27T06:52:02;5.05;;;1.30;;
10100;SDS011;5090;51.258;4.436;2022-08-27T06:54:30;4.07;;;1.37;;
10100;SDS011;5090;51.258;4.436;2022-08-27T06:56:58;4.15;;;0.90;;
10100;SDS011;5090;51.258;4.436;2022-08-27T06:59:26;2.10;;;1.15;;
10100;SDS011;5090;51.258;4.436;2022-08-27T07:01:55;5.53;;;1.20;;
10100;SDS011;5090;51.258;4.436;2022-08-27T07:04:24;4.32;;;1.02;;
10100;SDS011;5090;51.258;4.436;2022-08-27T07:06:51;2.78;;;1.10;;
10100;SDS011;5090;51.258;4.436;2022-08-27T07:09:19;3.92;;;1.20;;
10100;SDS011;5090;51.258;4.436;2022-08-27T07:11:47;2.87;;;1.00;;
10100;SDS011;5090;51.258;4.436;2022-08-27T07:14:16;3.67;;;1.27;;
10100;SDS011;5090;51.258;4.436;2022-08-27T07:16:44;5.87;;;1.20;;
10100;SDS011;5090;51.258;4.436;2022-08-27T07:19:12;3.97;;;0.80;;
10100;SDS011;5090;51.258;4.436;2022-08-27T07:21:40;4.60;;;0.80;;
10100;SDS011;5090;51.258;4.436;2022-08-27T07:24:08;3.42;;;0.93;;
10100;SDS011;5090;51.258;4.436;2022-08-27T07:26:37;3.72;;;1.02;;
10100;SDS011;5090;51.258;4.436;2022-08-27T07:29:06;4.05;;;0.95;;
10100;SDS011;5090;51.258;4.436;2022-08-27T07:31:34;5.15;;;0.93;;
10100;SDS011;5090;51.258;4.436;2022-08-27T07:34:03;5.07;;;0.70;;
10100;SDS011;5090;51.258;4.436;2022-08-27T07:36:31;3.60;;;0.95;;
10100;SDS011;5090;51.258;4.436;2022-08-27T07:38:59;2.62;;;1.02;;
10100;SDS011;5090;51.258;4.436;2022-08-27T07:41:28;3.55;;;0.88;;
10100;SDS011;5090;51.258;4.436;2022-08-27T07:44:00;2.17;;;0.98;;
10100;SDS011;5090;51.258;4.436;2022-08-27T07:46:34;2.53;;;0.90;;
10100;SDS011;5090;51.258;4.436;2022-08-27T07:49:02;3.20;;;0.70;;
10100;SDS011;5090;51.258;4.436;2022-08-27T07:51:30;2.87;;;1.00;;
10100;SDS011;5090;51.258;4.436;2022-08-27T07:54:03;2.70;;;0.70;;
10100;SDS011;5090;51.258;4.436;2022-08-27T07:56:32;2.33;;;0.80;;
10100;SDS011;5090;51.258;4.436;2022-08-27T07:59:00;2.17;;;1.00;;
10100;SDS011;5090;51.258;4.436;2022-08-27T08:01:28;2.72;;;0.88;;
10100;SDS011;5090;51.258;4.436;2022-08-27T08:03:57;2.08;;;0.65;;
10100;SDS011;5090;51.258;4.436;2022-08-27T08:06:25;2.37;;;0.85;;
10100;SDS011;5090;51.258;4.436;2022-08-27T08:08:53;3.50;;;0.93;;
10100;SDS011;5090;51.258;4.436;2022-08-27T08:11:22;2.45;;;0.90;;
10100;SDS011;5090;51.258;4.436;2022-08-27T08:13:50;5.35;;;1.15;;
10100;SDS011;5090;51.258;4.436;2022-08-27T08:16:18;2.70;;;1.08;;
10100;SDS011;5090;51.258;4.436;2022-08-27T08:18:46;3.35;;;0.90;;
10100;SDS011;5090;51.258;4.436;2022-08-27T08:21:14;4.85;;;0.80;;
10100;SDS011;5090;51.258;4.436;2022-08-27T08:23:43;5.43;;;1.45;;
10100;SDS011;5090;51.258;4.436;2022-08-27T08:26:11;6.10;;;1.00;;
10100;SDS011;5090;51.258;4.436;2022-08-27T08:28:39;6.37;;;1.30;;
10100;SDS011;5090;51.258;4.436;2022-08-27T08:31:07;4.32;;;1.08;;
10100;SDS011;5090;51.258;4.436;2022-08-27T08:33:36;4.65;;;1.20;;
10100;SDS011;5090;51.258;4.436;2022-08-27T08:36:06;4.97;;;1.10;;
10100;SDS011;5090;51.258;4.436;2022-08-27T08:38:33;8.02;;;1.20;;
10100;SDS011;5090;51.258;4.436;2022-08-27T08:41:02;2.47;;;1.20;;
10100;SDS011;5090;51.258;4.436;2022-08-27T08:43:31;3.05;;;1.30;;
10100;SDS011;5090;51.258;4.436;2022-08-27T08:46:01;5.15;;;1.27;;
10100;SDS011;5090;51.258;4.436;2022-08-27T08:48:27;2.55;;;1.10;;
10100;SDS011;5090;51.258;4.436;2022-08-27T08:51:02;5.12;;;1.00;;
10100;SDS011;5090;51.258;4.436;2022-08-27T08:53:35;5.68;;;1.00;;
10100;SDS011;5090;51.258;4.436;2022-08-27T08:56:01;4.00;;;1.20;;
10100;SDS011;5090;51.258;4.436;2022-08-27T08:58:38;4.68;;;1.02;;
10100;SDS011;5090;51.258;4.436;2022-08-27T09:01:01;5.45;;;1.17;;
10100;SDS011;5090;51.258;4.436;2022-08-27T09:03:28;4.53;;;0.80;;
10100;SDS011;5090;51.258;4.436;2022-08-27T09:05:59;2.55;;;0.82;;
10100;SDS011;5090;51.258;4.436;2022-08-27T09:08:29;6.10;;;1.42;;
10100;SDS011;5090;51.258;4.436;2022-08-27T09:11:01;3.30;;;0.88;;
10100;SDS011;5090;51.258;4.436;2022-08-27T09:13:28;2.85;;;1.20;;
10100;SDS011;5090;51.258;4.436;2022-08-27T09:15:56;3.85;;;0.82;;
10100;SDS011;5090;51.258;4.436;2022-08-27T09:18:22;3.62;;;1.42;;
10100;SDS011;5090;51.258;4.436;2022-08-27T09:20:53;2.70;;;1.00;;
10100;SDS011;5090;51.258;4.436;2022-08-27T09:23:25;5.12;;;0.90;;
10100;SDS011;5090;51.258;4.436;2022-08-27T09:25:51;3.53;;;0.80;;
10100;SDS011;5090;51.258;4.436;2022-08-27T09:28:20;5.47;;;1.00;;
10100;SDS011;5090;51.258;4.436;2022-08-27T09:30:53;5.70;;;1.30;;
10100;SDS011;5090;51.258;4.436;2022-08-27T09:33:21;5.03;;;1.23;;
10100;SDS011;5090;51.258;4.436;2022-08-27T09:35:49;4.18;;;0.77;;
10100;SDS011;5090;51.258;4.436;2022-08-27T09:38:20;1.67;;;0.80;;
10100;SDS011;5090;51.258;4.436;2022-08-27T09:40:47;6.05;;;2.00;;
10100;SDS011;5090;51.258;4.436;2022-08-27T09:43:19;2.42;;;0.80;;
10100;SDS011;5090;51.258;4.436;2022-08-27T09:45:47;3.83;;;1.08;;
10100;SDS011;5090;51.258;4.436;2022-08-27T09:48:18;1.58;;;1.02;;
10100;SDS011;5090;51.258;4.436;2022-08-27T09:50:48;4.15;;;1.00;;
10100;SDS011;5090;51.258;4.436;2022-08-27T09:53:22;1.37;;;0.65;;
10100;SDS011;5090;51.258;4.436;2022-08-27T09:55:48;4.97;;;0.82;;
10100;SDS011;5090;51.258;4.436;2022-08-27T09:58:18;3.22;;;1.33;;
10100;SDS011;5090;51.258;4.436;2022-08-27T10:00:44;1.45;;;0.80;;
10100;SDS011;5090;51.258;4.436;2022-08-27T10:03:12;7.05;;;0.90;;
10100;SDS011;5090;51.258;4.436;2022-08-27T10:05:43;2.35;;;0.80;;
10100;SDS011;5090;51.258;4.436;2022-08-27T10:08:16;2.33;;;1.05;;
10100;SDS011;5090;51.258;4.436;2022-08-27T10:10:54;4.65;;;0.95;;
10100;SDS011;5090;51.258;4.436;2022-08-27T10:13:25;3.37;;;1.00;;
10100;SDS011;5090;51.258;4.436;2022-08-27T10:15:54;3.90;;;0.90;;
10100;SDS011;5090;51.258;4.436;2022-08-27T10:18:20;3.78;;;0.90;;
10100;SDS011;5090;51.258;4.436;2022-08-27T10:20:51;4.82;;;1.02;;
10100;SDS011;5090;51.258;4.436;2022-08-27T10:26:03;2.97;;;0.70;;
10100;SDS011;5090;51.258;4.436;2022-08-27T10:28:36;4.57;;;1.17;;
10100;SDS011;5090;51.258;4.436;2022-08-27T10:33:52;4.65;;;1.08;;
10100;SDS011;5090;51.258;4.436;2022-08-27T10:38:57;2.87;;;1.08;;
10100;SDS011;5090;51.258;4.436;2022-08-27T10:41:25;3.78;;;1.33;;
10100;SDS011;5090;51.258;4.436;2022-08-27T10:44:28;6.53;;;1.20;;
10100;SDS011;5090;51.258;4.436;2022-08-27T10:46:55;5.18;;;1.33;;
10100;SDS011;5090;51.258;4.436;2022-08-27T10:52:13;3.33;;;1.02;;
10100;SDS011;5090;51.258;4.436;2022-08-27T10:54:38;4.30;;;0.80;;
10100;SDS011;5090;51.258;4.436;2022-08-27T10:57:10;3.47;;;1.30;;
10100;SDS011;5090;51.258;4.436;2022-08-27T10:59:38;2.78;;;1.15;;
10100;SDS011;5090;51.258;4.436;2022-08-27T11:02:12;4.30;;;1.17;;
10100;SDS011;5090;51.258;4.436;2022-08-27T11:04:37;3.85;;;1.20;;
10100;SDS011;5090;51.258;4.436;2022-08-27T11:07:07;4.37;;;1.58;;
10100;SDS011;5090;51.258;4.436;2022-08-27T11:09:40;2.83;;;1.20;;
10100;SDS011;5090;51.258;4.436;2022-08-27T11:12:06;2.58;;;1.20;;
10100;SDS011;5090;51.258;4.436;2022-08-27T11:14:36;1.80;;;1.10;;
10100;SDS011;5090;51.258;4.436;2022-08-27T11:17:04;4.20;;;1.30;;
10100;SDS011;5090;51.258;4.436;2022-08-27T11:19:42;2.80;;;1.20;;
10100;SDS011;5090;51.258;4.436;2022-08-27T11:24:46;4.35;;;1.35;;
10100;SDS011;5090;51.258;4.436;2022-08-27T11:27:13;6.85;;;1.50;;
10100;SDS011;5090;51.258;4.436;2022-08-27T11:29:44;5.45;;;1.33;;
10100;SDS011;5090;51.258;4.436;2022-08-27T11:32:17;5.72;;;1.20;;
10100;SDS011;5090;51.258;4.436;2022-08-27T11:34:47;4.20;;;1.50;;
10100;SDS011;5090;51.258;4.436;2022-08-27T11:37:21;4.10;;;1.52;;
10100;SDS011;5090;51.258;4.436;2022-08-27T11:39:57;4.37;;;1.30;;
10100;SDS011;5090;51.258;4.436;2022-08-27T11:42:33;5.00;;;1.50;;
10100;SDS011;5090;51.258;4.436;2022-08-27T11:45:03;5.20;;;1.73;;
10100;SDS011;5090;51.258;4.436;2022-08-27T11:47:30;4.53;;;1.50;;
10100;SDS011;5090;51.258;4.436;2022-08-27T11:49:59;2.47;;;1.40;;
10100;SDS011;5090;51.258;4.436;2022-08-27T11:52:29;4.85;;;2.00;;
10100;SDS011;5090;51.258;4.436;2022-08-27T11:55:08;3.17;;;1.48;;
10100;SDS011;5090;51.258;4.436;2022-08-27T11:57:26;3.72;;;1.33;;
10100;SDS011;5090;51.258;4.436;2022-08-27T11:59:53;6.45;;;2.40;;
10100;SDS011;5090;51.258;4.436;2022-08-27T12:02:26;4.22;;;1.90;;
10100;SDS011;5090;51.258;4.436;2022-08-27T12:04:53;4.35;;;1.67;;
10100;SDS011;5090;51.258;4.436;2022-08-27T12:07:23;4.78;;;1.55;;
10100;SDS011;5090;51.258;4.436;2022-08-27T12:09:53;4.30;;;1.50;;
10100;SDS011;5090;51.258;4.436;2022-08-27T12:12:24;2.42;;;1.40;;
10100;SDS011;5090;51.258;4.436;2022-08-27T12:14:53;3.20;;;1.40;;
10100;SDS011;5090;51.258;4.436;2022-08-27T12:18:31;4.93;;;1.80;;
10100;SDS011;5090;51.258;4.436;2022-08-27T12:20:17;5.28;;;2.33;;
10100;SDS011;5090;51.258;4.436;2022-08-27T12:23:01;3.70;;;1.67;;
10100;SDS011;5090;51.258;4.436;2022-08-27T12:25:32;4.45;;;1.90;;
10100;SDS011;5090;51.258;4.436;2022-08-27T12:28:02;4.75;;;1.73;;
10100;SDS011;5090;51.258;4.436;2022-08-27T12:30:31;2.45;;;1.50;;
10100;SDS011;5090;51.258;4.436;2022-08-27T12:33:03;6.05;;;1.50;;
10100;SDS011;5090;51.258;4.436;2022-08-27T12:35:30;5.40;;;2.08;;
10100;SDS011;5090;51.258;4.436;2022-08-27T12:38:06;4.75;;;1.60;;
10100;SDS011;5090;51.258;4.436;2022-08-27T12:40:35;2.72;;;1.37;;
10100;SDS011;5090;51.258;4.436;2022-08-27T12:43:03;3.00;;;1.58;;
10100;SDS011;5090;51.258;4.436;2022-08-27T12:45:30;3.42;;;1.80;;
10100;SDS011;5090;51.258;4.436;2022-08-27T12:47:58;5.20;;;1.83;;
10100;SDS011;5090;51.258;4.436;2022-08-27T12:50:27;4.10;;;1.80;;
10100;SDS011;5090;51.258;4.436;2022-08-27T12:53:09;5.28;;;2.00;;
10100;SDS011;5090;51.258;4.436;2022-08-27T12:55:44;2.47;;;1.35;;
10100;SDS011;5090;51.258;4.436;2022-08-27T12:58:18;2.28;;;1.45;;
10100;SDS011;5090;51.258;4.436;2022-08-27T13:00:55;3.53;;;1.52;;
10100;SDS011;5090;51.258;4.436;2022-08-27T13:03:23;4.72;;;1.30;;
10100;SDS011;5090;51.258;4.436;2022-08-27T13:05:50;3.28;;;1.50;;
10100;SDS011;5090;51.258;4.436;2022-08-27T13:08:18;3.87;;;1.60;;
10100;SDS011;5090;51.258;4.436;2022-08-27T13:10:46;3.40;;;1.42;;
10100;SDS011;5090;51.258;4.436;2022-08-27T13:13:15;2.47;;;1.10;;
10100;SDS011;5090;51.258;4.436;2022-08-27T13:15:44;5.50;;;2.00;;
10100;SDS011;5090;51.258;4.436;2022-08-27T13:18:10;4.50;;;2.03;;
10100;SDS011;5090;51.258;4.436;2022-08-27T13:20:39;3.95;;;1.65;;
10100;SDS011;5090;51.258;4.436;2022-08-27T13:23:11;4.60;;;1.75;;
10100;SDS011;5090;51.258;4.436;2022-08-27T13:25:35;3.35;;;1.48;;
10100;SDS011;5090;51.258;4.436;2022-08-27T13:28:08;5.60;;;1.80;;
10100;SDS011;5090;51.258;4.436;2022-08-27T13:30:36;5.40;;;1.73;;
10100;SDS011;5090;51.258;4.436;2022-08-27T13:33:04;5.32;;;1.98;;
10100;SDS011;5090;51.258;4.436;2022-08-27T13:35:32;3.60;;;1.40;;
10100;SDS011;5090;51.258;4.436;2022-08-27T13:38:01;3.12;;;1.20;;
10100;SDS011;5090;51.258;4.436;2022-08-27T13:40:30;2.97;;;1.48;;
10100;SDS011;5090;51.258;4.436;2022-08-27T13:43:01;3.25;;;1.48;;
10100;SDS011;5090;51.258;4.436;2022-08-27T13:45:25;5.07;;;1.48;;
10100;SDS011;5090;51.258;4.436;2022-08-27T13:47:53;5.15;;;1.40;;
10100;SDS011;5090;51.258;4.436;2022-08-27T13:50:23;5.82;;;1.45;;
10100;SDS011;5090;51.258;4.436;2022-08-27T13:52:51;6.70;;;1.58;;
10100;SDS011;5090;51.258;4.436;2022-08-27T13:55:25;3.50;;;1.20;;
10100;SDS011;5090;51.258;4.436;2022-08-27T13:57:53;5.75;;;1.30;;
10100;SDS011;5090;51.258;4.436;2022-08-27T14:00:30;4.03;;;1.30;;
10100;SDS011;5090;51.258;4.436;2022-08-27T14:02:58;2.30;;;0.90;;
10100;SDS011;5090;51.258;4.436;2022-08-27T14:05:28;2.03;;;1.15;;
10100;SDS011;5090;51.258;4.436;2022-08-27T14:07:57;2.55;;;0.73;;
10100;SDS011;5090;51.258;4.436;2022-08-27T14:10:27;2.40;;;1.05;;
10100;SDS011;5090;51.258;4.436;2022-08-27T14:12:55;2.65;;;0.82;;
10100;SDS011;5090;51.258;4.436;2022-08-27T14:15:27;1.87;;;0.60;;
10100;SDS011;5090;51.258;4.436;2022-08-27T14:17:51;3.58;;;0.68;;
10100;SDS011;5090;51.258;4.436;2022-08-27T14:20:19;1.85;;;0.80;;
10100;SDS011;5090;51.258;4.436;2022-08-27T14:22:48;4.20;;;1.00;;
10100;SDS011;5090;51.258;4.436;2022-08-27T14:25:16;3.60;;;1.10;;
10100;SDS011;5090;51.258;4.436;2022-08-27T14:27:44;3.72;;;1.00;;
10100;SDS011;5090;51.258;4.436;2022-08-27T14:30:14;5.32;;;1.25;;
10100;SDS011;5090;51.258;4.436;2022-08-27T14:32:41;3.42;;;0.95;;
10100;SDS011;5090;51.258;4.436;2022-08-27T14:35:09;2.72;;;1.12;;
10100;SDS011;5090;51.258;4.436;2022-08-27T14:37:37;2.72;;;1.00;;
10100;SDS011;5090;51.258;4.436;2022-08-27T14:40:06;7.53;;;1.30;;
10100;SDS011;5090;51.258;4.436;2022-08-27T14:42:34;3.83;;;0.93;;
10100;SDS011;5090;51.258;4.436;2022-08-27T14:45:02;2.47;;;1.20;;
10100;SDS011;5090;51.258;4.436;2022-08-27T14:47:32;2.37;;;1.40;;
10100;SDS011;5090;51.258;4.436;2022-08-27T14:50:00;5.43;;;1.65;;
10100;SDS011;5090;51.258;4.436;2022-08-27T14:52:28;7.78;;;1.20;;
10100;SDS011;5090;51.258;4.436;2022-08-27T14:54:56;5.95;;;1.20;;
10100;SDS011;5090;51.258;4.436;2022-08-27T14:57:25;4.95;;;1.17;;
10100;SDS011;5090;51.258;4.436;2022-08-27T14:59:53;7.07;;;4.20;;
10100;SDS011;5090;51.258;4.436;2022-08-27T15:02:21;2.37;;;1.12;;
10100;SDS011;5090;51.258;4.436;2022-08-27T15:04:49;2.65;;;1.30;;
10100;SDS011;5090;51.258;4.436;2022-08-27T15:07:17;4.10;;;1.20;;
10100;SDS011;5090;51.258;4.436;2022-08-27T15:09:46;2.40;;;1.20;;
10100;SDS011;5090;51.258;4.436;2022-08-27T15:12:14;12.68;;;6.95;;
10100;SDS011;5090;51.258;4.436;2022-08-27T15:14:42;8.23;;;4.82;;
10100;SDS011;5090;51.258;4.436;2022-08-27T15:17:10;6.95;;;3.78;;
10100;SDS011;5090;51.258;4.436;2022-08-27T15:19:38;7.55;;;3.67;;
10100;SDS011;5090;51.258;4.436;2022-08-27T15:22:12;10.23;;;3.90;;
10100;SDS011;5090;51.258;4.436;2022-08-27T15:24:40;7.80;;;3.05;;